Time;durP1;ratioP1;P1;durP2;ratioP2;P2;SDS_P1;SDS_P2;PMS_P1;PMS_P2;Temp;Humidity;BMP_temperature;BMP_pressure;BME280_temperature;BME280_humidity;BME280_pressure;Samples;Min_cycle;Max_cycle;Signal;HPM_P1;HPM_P2
2023/12/26 00:01:50;;;;;;;0.93;0.73;;;;;;;10.52;100.00;100425.94;5079553;28;20120;-74
2023/12/26 00:04:17;;;;;;;2.33;0.90;;;;;;;10.50;100.00;100420.72;5047655;28;20072;-74
2023/12/26 00:06:46;;;;;;;1.70;0.90;;;;;;;10.50;100.00;100419.84;5064337;28;20480;-75
2023/12/26 00:09:14;;;;;;;2.28;1.00;;;;;;;10.46;100.00;100429.66;5076979;28;20478;-74
2023/12/26 00:11:46;;;;;;;2.10;0.90;;;;;;;10.45;100.00;100421.81;5066968;28;20045;-75
2023/12/26 00:14:16;;;;;;;2.03;0.85;;;;;;;10.44;100.00;100425.34;5049557;28;20121;-75
2023/12/26 00:16:44;;;;;;;3.05;1.10;;;;;;;10.43;100.00;100436.81;5071696;28;20340;-75
2023/12/26 00:19:11;;;;;;;2.75;1.20;;;;;;;10.41;100.00;100421.06;5067598;28;20138;-76
2023/12/26 00:21:39;;;;;;;1.33;0.80;;;;;;;10.41;100.00;100432.44;5067187;28;20040;-76
2023/12/26 00:24:07;;;;;;;1.60;0.85;;;;;;;10.41;100.00;100419.28;5066280;28;20119;-76
2023/12/26 00:26:38;;;;;;;1.60;1.00;;;;;;;10.41;100.00;100426.34;5065955;28;20118;-75
2023/12/26 00:29:08;;;;;;;2.25;1.00;;;;;;;10.41;100.00;100424.53;5067553;28;20073;-75
2023/12/26 00:31:40;;;;;;;1.65;0.88;;;;;;;10.41;100.00;100418.44;5073796;28;20090;-74
2023/12/26 00:34:08;;;;;;;0.80;0.80;;;;;;;10.43;100.00;100421.00;5067450;28;20078;-75
2023/12/26 00:36:35;;;;;;;1.52;0.90;;;;;;;10.41;100.00;100415.78;5065072;28;20036;-74
2023/12/26 00:39:03;;;;;;;1.25;0.90;;;;;;;10.41;100.00;100421.91;5066694;28;20048;-75
2023/12/26 00:41:30;;;;;;;2.25;0.80;;;;;;;10.40;100.00;100412.28;5082915;28;20094;-75
2023/12/26 00:43:57;;;;;;;2.20;1.00;;;;;;;10.39;100.00;100417.63;5067008;28;20251;-75
2023/12/26 00:46:25;;;;;;;1.40;0.93;;;;;;;10.37;100.00;100411.50;5065441;28;21127;-74
2023/12/26 00:48:52;;;;;;;3.17;1.00;;;;;;;10.37;100.00;100422.03;5077333;28;20050;-73
2023/12/26 00:51:19;;;;;;;1.50;0.80;;;;;;;10.34;100.00;100432.69;5080973;28;20048;-74
2023/12/26 00:53:46;;;;;;;1.80;0.82;;;;;;;10.35;100.00;100429.13;5067516;28;20415;-73
2023/12/26 00:56:14;;;;;;;3.67;0.90;;;;;;;10.34;100.00;100437.97;5065629;28;20147;-74
2023/12/26 00:58:42;;;;;;;2.42;1.00;;;;;;;10.32;100.00;100439.81;5099749;28;20048;-74
2023/12/26 01:01:09;;;;;;;1.55;0.80;;;;;;;10.29;100.00;100445.19;5066621;28;20571;-73
2023/12/26 01:03:36;;;;;;;2.50;1.05;;;;;;;10.28;100.00;100461.91;5060548;28;20037;-73
2023/12/26 01:06:03;;;;;;;3.38;1.00;;;;;;;10.25;100.00;100458.44;5064390;28;20154;-73
2023/12/26 01:08:30;;;;;;;2.00;0.90;;;;;;;10.26;100.00;100449.63;5067037;28;20041;-71
2023/12/26 01:10:58;;;;;;;2.15;0.80;;;;;;;10.24;100.00;100451.47;5084395;28;20044;-71
2023/12/26 01:13:26;;;;;;;0.88;0.80;;;;;;;10.25;100.00;100439.16;5051270;28;20045;-72
2023/12/26 01:15:53;;;;;;;2.60;0.90;;;;;;;10.24;100.00;100445.34;5085718;28;20807;-72
2023/12/26 01:18:20;;;;;;;1.33;0.77;;;;;;;10.23;100.00;100457.63;5087411;28;20540;-71
2023/12/26 01:20:48;;;;;;;1.17;0.80;;;;;;;10.23;100.00;100451.53;5069595;28;20338;-72
2023/12/26 01:23:15;;;;;;;2.22;0.90;;;;;;;10.22;100.00;100455.94;5071191;28;20044;-71
2023/12/26 01:25:42;;;;;;;1.52;0.90;;;;;;;10.20;100.00;100457.78;5071654;28;20098;-72
2023/12/26 01:28:09;;;;;;;1.33;0.80;;;;;;;10.22;100.00;100460.34;5051227;28;20102;-71
2023/12/26 01:30:40;;;;;;;1.08;0.80;;;;;;;10.22;100.00;100458.59;5068597;28;20048;-72
2023/12/26 01:33:08;;;;;;;1.20;0.70;;;;;;;10.21;100.00;100462.13;5087331;28;20072;-72
2023/12/26 01:35:35;;;;;;;1.30;0.70;;;;;;;10.20;100.00;100465.66;5067914;28;20048;-72
2023/12/26 01:38:02;;;;;;;1.08;0.70;;;;;;;10.22;100.00;100471.75;5091174;28;20106;-73
2023/12/26 01:40:30;;;;;;;1.67;0.80;;;;;;;10.22;100.00;100457.69;5087697;28;20510;-72
2023/12/26 01:42:57;;;;;;;2.15;0.70;;;;;;;10.23;100.00;100459.44;5086804;28;20049;-72
2023/12/26 01:45:24;;;;;;;0.80;0.57;;;;;;;10.23;100.00;100472.59;5071593;28;20036;-72
2023/12/26 01:47:55;;;;;;;1.90;0.70;;;;;;;10.23;100.00;100465.53;5069496;28;20500;-72
2023/12/26 01:50:25;;;;;;;1.20;0.70;;;;;;;10.23;100.00;100467.34;5069600;28;20036;-72
2023/12/26 01:52:53;;;;;;;1.35;0.82;;;;;;;10.23;100.00;100459.44;5070200;28;20036;-72
2023/12/26 01:55:22;;;;;;;1.52;0.98;;;;;;;10.23;100.00;100483.13;5070914;28;20403;-72
2023/12/26 01:57:56;;;;;;;0.90;0.68;;;;;;;10.22;100.00;100478.78;5070313;28;20041;-72
2023/12/26 02:00:23;;;;;;;2.10;1.05;;;;;;;10.22;100.00;100484.94;5070249;28;20499;-72
2023/12/26 02:02:52;;;;;;;0.80;0.80;;;;;;;10.23;100.00;100488.41;5086196;28;20040;-72
2023/12/26 02:05:21;;;;;;;1.35;0.80;;;;;;;10.24;100.00;100476.97;5085374;28;20047;-71
2023/12/26 02:07:49;;;;;;;1.33;0.80;;;;;;;10.24;100.00;100488.34;5054681;28;20071;-72
2023/12/26 02:10:17;;;;;;;1.45;0.90;;;;;;;10.24;100.00;100482.22;5051016;28;20041;-72
2023/12/26 02:12:44;;;;;;;2.28;0.95;;;;;;;10.23;100.00;100489.25;5061869;28;20052;-73
2023/12/26 02:15:13;;;;;;;2.78;1.08;;;;;;;10.23;100.00;100488.41;5069461;28;20040;-73
2023/12/26 02:17:42;;;;;;;1.60;0.90;;;;;;;10.24;100.00;100487.50;5069407;28;20052;-72
2023/12/26 02:20:10;;;;;;;1.60;0.80;;;;;;;10.22;100.00;100490.19;5069153;28;20053;-73
2023/12/26 02:22:38;;;;;;;0.90;0.90;;;;;;;10.23;100.00;100501.59;5058359;28;20041;-72
2023/12/26 02:25:09;;;;;;;1.75;1.20;;;;;;;10.21;100.00;100499.00;5068296;28;20036;-72
2023/12/26 02:27:37;;;;;;;1.30;1.20;;;;;;;10.22;100.00;100495.47;5069971;28;20127;-72
2023/12/26 02:30:08;;;;;;;1.38;0.90;;;;;;;10.24;100.00;100498.03;5069870;28;20067;-73
2023/12/26 02:32:39;;;;;;;1.20;1.10;;;;;;;10.23;100.00;100499.78;5069638;28;20103;-72
2023/12/26 02:35:08;;;;;;;2.28;1.25;;;;;;;10.24;100.00;100508.56;5060248;28;20045;-72
2023/12/26 02:37:37;;;;;;;1.98;1.20;;;;;;;10.24;100.00;100504.16;5063099;28;20079;-73
2023/12/26 02:40:05;;;;;;;1.98;1.20;;;;;;;10.23;100.00;100505.06;5069420;28;20055;-73
2023/12/26 02:42:32;;;;;;;1.08;0.98;;;;;;;10.24;100.00;100505.94;5067831;28;20044;-72
2023/12/26 02:44:59;;;;;;;1.33;1.15;;;;;;;10.25;100.00;100510.28;5069216;28;20037;-73
2023/12/26 02:47:27;;;;;;;1.50;1.10;;;;;;;10.25;100.00;100507.66;5084694;28;20098;-72
2023/12/26 02:49:55;;;;;;;1.98;1.20;;;;;;;10.24;100.00;100506.78;5056677;28;20063;-71
2023/12/26 02:52:22;;;;;;;1.85;1.45;;;;;;;10.24;100.00;100504.16;5068221;28;20060;-72
2023/12/26 02:54:49;;;;;;;1.50;1.40;;;;;;;10.23;100.00;100499.78;5069724;28;20040;-72
2023/12/26 02:57:16;;;;;;;1.60;1.42;;;;;;;10.25;100.00;100505.03;5068850;28;20044;-72
2023/12/26 02:59:43;;;;;;;1.88;1.65;;;;;;;10.23;100.00;100505.06;5101718;28;20052;-72
2023/12/26 03:02:11;;;;;;;1.80;1.70;;;;;;;10.22;100.00;100513.91;5101387;28;20195;-72
2023/12/26 03:04:38;;;;;;;1.85;1.65;;;;;;;10.23;100.00;100509.47;5065459;28;20037;-72
2023/12/26 03:07:05;;;;;;;1.85;1.50;;;;;;;10.23;100.00;100520.03;5084236;28;20068;-72
2023/12/26 03:09:33;;;;;;;2.42;1.77;;;;;;;10.22;100.00;100520.94;5066242;28;20048;-72
2023/12/26 03:12:00;;;;;;;2.70;1.63;;;;;;;10.20;100.00;100531.53;5084527;28;20075;-73
2023/12/26 03:14:27;;;;;;;2.05;1.70;;;;;;;10.20;100.00;100539.44;5047287;28;20076;-72
2023/12/26 03:16:54;;;;;;;1.90;1.70;;;;;;;10.18;100.00;100540.38;5083422;28;20052;-73
2023/12/26 03:19:22;;;;;;;2.70;1.88;;;;;;;10.17;100.00;100534.25;5040890;28;20072;-73
2023/12/26 03:21:49;;;;;;;2.20;2.00;;;;;;;10.18;100.00;100545.63;5081472;28;20041;-72
2023/12/26 03:24:16;;;;;;;2.67;2.10;;;;;;;10.15;100.00;100551.88;5095429;28;20491;-72
2023/12/26 03:28:44;;;;;;;4.00;2.40;;;;;;;10.13;100.00;100572.13;5083179;27;20456;-72
2023/12/26 03:31:12;;;;;;;2.85;2.15;;;;;;;10.12;100.00;100578.34;5062109;28;20037;-72
2023/12/26 03:33:40;;;;;;;4.88;1.85;;;;;;;10.10;100.00;100577.53;5063991;28;20043;-72
2023/12/26 03:36:08;;;;;;;4.05;1.80;;;;;;;10.07;100.00;100586.38;5061532;28;20106;-72
2023/12/26 03:38:37;;;;;;;3.80;1.58;;;;;;;10.06;100.00;100591.69;5059947;28;20060;-72
2023/12/26 03:41:04;;;;;;;2.20;1.50;;;;;;;10.04;100.00;100585.59;5063847;28;20049;-72
2023/12/26 03:43:32;;;;;;;3.38;1.80;;;;;;;10.02;100.00;100583.03;5048170;28;20040;-73
2023/12/26 03:45:59;;;;;;;3.80;1.65;;;;;;;10.04;100.00;100585.59;5067109;28;20072;-73
2023/12/26 03:48:26;;;;;;;2.78;1.70;;;;;;;10.03;100.00;100591.78;5061885;28;20044;-73
2023/12/26 03:50:54;;;;;;;3.05;1.50;;;;;;;10.04;100.00;100591.75;5064088;28;20048;-73
2023/12/26 03:53:23;;;;;;;2.97;1.95;;;;;;;10.02;100.00;100582.19;5043650;28;20106;-71
2023/12/26 03:55:50;;;;;;;4.10;1.95;;;;;;;10.02;100.00;100584.81;5058447;28;20090;-73
2023/12/26 03:58:17;;;;;;;2.33;1.40;;;;;;;9.99;100.00;100577.00;5042849;28;20639;-73
2023/12/26 04:00:44;;;;;;;4.43;2.25;;;;;;;9.96;100.00;100577.97;5061487;28;20045;-72
2023/12/26 04:03:12;;;;;;;3.78;1.80;;;;;;;9.93;100.00;100578.06;5062930;28;20131;-72
2023/12/26 04:05:40;;;;;;;4.20;1.40;;;;;;;9.89;100.00;100598.38;5057411;28;20063;-71
2023/12/26 04:08:07;;;;;;;3.47;1.40;;;;;;;9.88;100.00;100595.75;5045022;28;20033;-70
2023/12/26 04:10:34;;;;;;;5.57;1.35;;;;;;;9.85;100.00;100599.34;5057177;28;20055;-71
2023/12/26 04:13:01;;;;;;;3.33;1.05;;;;;;;9.85;100.00;100594.09;5045249;28;20424;-71
2023/12/26 04:15:28;;;;;;;5.25;1.15;;;;;;;9.85;100.00;100606.41;5059780;28;20124;-71
2023/12/26 04:17:58;;;;;;;4.63;1.00;;;;;;;9.83;100.00;100610.84;5056531;28;20148;-71
2023/12/26 04:20:25;;;;;;;9.45;1.60;;;;;;;9.82;100.00;100631.03;5059076;28;20041;-71
2023/12/26 04:22:52;;;;;;;10.45;1.90;;;;;;;9.81;100.00;100620.56;5043388;28;20641;-71
2023/12/26 04:25:22;;;;;;;4.93;1.05;;;;;;;9.82;100.00;100636.31;5075150;28;20646;-71
2023/12/26 04:27:49;;;;;;;7.40;1.25;;;;;;;9.81;100.00;100634.63;5053730;28;20060;-71
2023/12/26 04:30:17;;;;;;;5.13;1.25;;;;;;;9.82;100.00;100646.84;5063619;28;20504;-71
2023/12/26 04:32:45;;;;;;;6.18;1.10;;;;;;;9.82;100.00;100649.47;5046471;28;20094;-71
2023/12/26 04:35:14;;;;;;;7.03;1.00;;;;;;;9.82;100.00;100661.78;5049717;28;20154;-70
2023/12/26 04:37:42;;;;;;;4.85;1.20;;;;;;;9.81;100.00;100650.41;5045337;28;20028;-71
2023/12/26 04:40:09;;;;;;;5.43;1.13;;;;;;;9.79;100.00;100671.50;5028676;28;20155;-71
2023/12/26 04:42:37;;;;;;;3.97;1.00;;;;;;;9.76;100.00;100671.59;5015755;28;20120;-71
2023/12/26 04:45:04;;;;;;;4.53;0.93;;;;;;;9.76;100.00;100676.88;5031173;28;20048;-71
2023/12/26 04:47:31;;;;;;;4.68;1.00;;;;;;;9.76;100.00;100679.50;5030872;28;20041;-71
2023/12/26 04:49:59;;;;;;;5.78;1.02;;;;;;;9.73;100.00;100676.94;5032684;28;20047;-71
2023/12/26 04:52:26;;;;;;;5.90;1.00;;;;;;;9.68;100.00;100676.22;5028628;28;20120;-71
2023/12/26 04:54:54;;;;;;;7.28;1.17;;;;;;;9.60;100.00;100680.84;5036046;28;20123;-71
2023/12/26 04:57:21;;;;;;;8.65;1.20;;;;;;;9.58;100.00;100670.38;5032389;28;20040;-71
2023/12/26 04:59:48;;;;;;;2.45;0.70;;;;;;;9.60;100.00;100696.63;5037985;28;20107;-71
2023/12/26 05:02:15;;;;;;;7.38;1.10;;;;;;;9.61;100.00;100693.09;5049496;28;20041;-71
2023/12/26 05:04:43;;;;;;;6.63;1.00;;;;;;;9.62;100.00;100708.84;5050606;28;20118;-71
2023/12/26 05:07:13;;;;;;;5.22;1.20;;;;;;;9.64;100.00;100693.88;5033709;28;20040;-71
2023/12/26 05:09:40;;;;;;;5.53;0.95;;;;;;;9.66;100.00;100711.38;5049634;28;20044;-71
2023/12/26 05:12:07;;;;;;;6.50;1.20;;;;;;;9.61;100.00;100701.84;5031238;28;20041;-72
2023/12/26 05:14:34;;;;;;;5.13;1.30;;;;;;;9.59;100.00;100705.44;5036686;28;20155;-71
2023/12/26 05:17:02;;;;;;;8.18;1.00;;;;;;;9.54;100.00;100718.72;5031532;28;20135;-70
2023/12/26 05:19:29;;;;;;;6.53;1.30;;;;;;;9.53;100.00;100714.34;5048793;28;20471;-72
2023/12/26 05:21:56;;;;;;;7.72;1.30;;;;;;;9.52;100.00;100717.88;5040314;28;20073;-71
2023/12/26 05:24:25;;;;;;;6.10;1.10;;;;;;;9.48;100.00;100734.69;5052316;28;20482;-71
2023/12/26 05:26:52;;;;;;;5.95;1.05;;;;;;;9.45;100.00;100734.75;5048388;28;20483;-76
2023/12/26 05:29:19;;;;;;;6.40;1.15;;;;;;;9.41;100.00;100741.88;5030846;28;20094;-71
2023/12/26 05:31:46;;;;;;;4.60;1.00;;;;;;;9.38;100.00;100754.25;5048046;28;20132;-71
2023/12/26 05:34:13;;;;;;;6.00;1.00;;;;;;;9.30;100.00;100754.47;5031857;28;20053;-72
2023/12/26 05:36:41;;;;;;;6.80;1.13;;;;;;;9.24;100.00;100765.16;5036737;28;20051;-72
2023/12/26 05:39:10;;;;;;;9.45;1.52;;;;;;;9.18;100.00;100745.13;5029194;28;20112;-73
2023/12/26 05:41:41;;;;;;;8.45;1.60;;;;;;;9.10;100.00;100766.38;5074765;28;20048;-73
2023/12/26 05:44:14;;;;;;;5.18;1.15;;;;;;;9.05;100.00;100764.75;5034948;28;20136;-71
2023/12/26 05:46:45;;;;;;;7.97;1.33;;;;;;;8.98;100.00;100769.28;5034749;28;20103;-70
2023/12/26 05:49:12;;;;;;;7.80;1.20;;;;;;;8.94;100.00;100781.66;5056025;28;20045;-72
2023/12/26 05:51:40;;;;;;;8.32;1.02;;;;;;;8.90;100.00;100782.66;5030900;28;20041;-70
2023/12/26 05:54:10;;;;;;;8.35;1.33;;;;;;;8.86;100.00;100778.34;5049770;28;20171;-71
2023/12/26 05:56:44;;;;;;;6.78;1.45;;;;;;;8.81;100.00;100788.09;5047281;28;20049;-71
2023/12/26 05:59:11;;;;;;;6.43;1.30;;;;;;;8.75;100.00;100790.88;5031322;28;20507;-71
2023/12/26 06:01:47;;;;;;;6.97;1.35;;;;;;;8.70;100.00;100799.72;5042236;28;20053;-70
2023/12/26 06:04:14;;;;;;;5.60;1.08;;;;;;;8.67;100.00;100798.94;5051099;28;20132;-71
2023/12/26 06:06:42;;;;;;;9.52;1.45;;;;;;;8.62;100.00;100809.56;5040164;28;20044;-70
2023/12/26 06:09:09;;;;;;;6.72;1.30;;;;;;;8.55;100.00;100819.34;5047738;28;20119;-69
2023/12/26 06:11:36;;;;;;;6.35;1.35;;;;;;;8.54;100.00;100822.00;5047531;28;20045;-70
2023/12/26 06:14:05;;;;;;;7.65;1.00;;;;;;;8.58;100.00;100830.69;5047371;28;20493;-71
2023/12/26 06:16:37;;;;;;;7.43;1.60;;;;;;;8.60;100.00;100837.63;5030255;28;20128;-71
2023/12/26 06:19:05;;;;;;;5.40;1.17;;;;;;;8.66;100.00;100836.63;5034649;28;20029;-72
2023/12/26 06:21:32;;;;;;;5.50;1.13;;;;;;;8.68;100.00;100842.72;5042898;28;20068;-72
2023/12/26 06:23:59;;;;;;;5.03;1.08;;;;;;;8.69;100.00;100853.22;5050899;28;20094;-71
2023/12/26 06:26:26;;;;;;;6.50;1.23;;;;;;;8.72;100.00;100854.91;5031371;28;20558;-71
2023/12/26 06:28:54;;;;;;;6.30;1.15;;;;;;;8.72;100.00;100860.16;5029814;28;20780;-71
2023/12/26 06:31:21;;;;;;;3.83;1.23;;;;;;;8.73;100.00;100868.91;5030170;28;20049;-72
2023/12/26 06:33:48;;;;;;;7.40;1.40;;;;;;;8.70;100.00;100886.47;5045615;28;20051;-70
2023/12/26 06:36:16;;;;;;;5.20;1.10;;;;;;;8.67;100.00;100896.19;5030585;28;20421;-71
2023/12/26 06:38:44;;;;;;;7.10;1.42;;;;;;;8.63;100.00;100900.66;5034027;28;20106;-70
2023/12/26 06:41:11;;;;;;;5.97;1.50;;;;;;;8.60;100.00;100905.09;5029706;28;20098;-70
2023/12/26 06:43:38;;;;;;;8.18;1.20;;;;;;;8.55;100.00;100899.94;5028555;28;20049;-71
2023/12/26 06:46:06;;;;;;;7.28;1.15;;;;;;;8.50;100.00;100896.53;5030855;28;20045;-71
2023/12/26 06:48:36;;;;;;;7.47;1.40;;;;;;;8.44;100.00;100891.38;5027380;28;20041;-71
2023/12/26 06:51:05;;;;;;;4.80;1.10;;;;;;;8.37;100.00;100891.53;5014599;28;20325;-71
2023/12/26 06:53:32;;;;;;;11.95;1.50;;;;;;;8.29;100.00;100890.78;5029900;28;20040;-70
2023/12/26 06:55:59;;;;;;;5.97;1.40;;;;;;;8.22;100.00;100899.69;5046769;28;20371;-71
2023/12/26 06:58:26;;;;;;;7.50;1.30;;;;;;;8.14;100.00;100899.84;5048374;28;20060;-70
2023/12/26 07:00:53;;;;;;;8.95;1.40;;;;;;;8.09;100.00;100905.16;5032756;28;20098;-71
2023/12/26 07:03:21;;;;;;;8.10;1.35;;;;;;;8.04;100.00;100909.66;5048346;28;20739;-70
2023/12/26 07:05:48;;;;;;;10.27;1.65;;;;;;;8.02;100.00;100914.06;5051563;28;20045;-72
2023/12/26 07:08:15;;;;;;;7.63;1.00;;;;;;;8.01;100.00;100916.72;5032871;28;20038;-72
2023/12/26 07:10:43;;;;;;;11.02;1.33;;;;;;;8.01;100.00;100914.09;5029201;28;20043;-72
2023/12/26 07:13:10;;;;;;;8.18;1.40;;;;;;;8.02;100.00;100928.97;5046646;28;20519;-72
2023/12/26 07:15:37;;;;;;;8.80;1.48;;;;;;;7.98;100.00;100935.16;5048018;28;20045;-72
2023/12/26 07:18:04;;;;;;;7.90;1.70;;;;;;;7.94;100.00;100944.84;5051156;28;20041;-72
2023/12/26 07:20:31;;;;;;;8.60;1.45;;;;;;;7.92;100.00;100957.13;5048736;28;20041;-72
2023/12/26 07:22:58;;;;;;;7.93;1.35;;;;;;;7.87;100.00;100961.63;5047796;28;20037;-72
2023/12/26 07:25:25;;;;;;;9.85;1.38;;;;;;;7.82;100.00;100972.19;5058135;28;20072;-72
2023/12/26 07:27:53;;;;;;;8.52;1.73;;;;;;;7.76;100.00;100978.41;5033291;28;20090;-71
2023/12/26 07:30:20;;;;;;;6.90;1.52;;;;;;;7.71;100.00;100982.84;5020087;28;20045;-71
2023/12/26 07:32:47;;;;;;;12.55;2.30;;;;;;;7.68;100.00;100992.53;5047553;28;20083;-71
2023/12/26 07:35:17;;;;;;;10.30;1.38;;;;;;;7.64;100.00;100988.22;5028502;28;20124;-72
2023/12/26 07:37:44;;;;;;;6.85;1.35;;;;;;;7.59;100.00;100986.53;5046988;28;20574;-72
2023/12/26 07:40:12;;;;;;;10.13;1.30;;;;;;;7.56;100.00;100991.81;5046816;28;20045;-72
2023/12/26 07:42:39;;;;;;;8.15;1.70;;;;;;;7.52;100.00;101002.41;5047691;28;20122;-72
2023/12/26 07:45:07;;;;;;;7.97;1.48;;;;;;;7.48;100.00;101011.22;5028639;28;20110;-72
2023/12/26 07:47:34;;;;;;;10.35;1.55;;;;;;;7.43;100.00;101013.88;5047519;28;20052;-72
2023/12/26 07:50:02;;;;;;;8.40;1.58;;;;;;;7.39;100.00;101020.94;5029786;28;20491;-72
2023/12/26 07:52:34;;;;;;;11.38;2.03;;;;;;;7.34;100.00;101020.13;5055099;28;20585;-72
2023/12/26 07:55:01;;;;;;;7.03;1.52;;;;;;;7.32;100.00;101026.31;5047185;28;20053;-72
2023/12/26 07:57:28;;;;;;;6.55;1.50;;;;;;;7.29;100.00;101028.06;5047108;28;20045;-73
2023/12/26 07:59:55;;;;;;;6.68;1.40;;;;;;;7.26;100.00;101028.09;5034500;28;20128;-72
2023/12/26 08:02:22;;;;;;;7.53;1.60;;;;;;;7.25;100.00;101033.38;5040185;28;20063;-71
2023/12/26 08:04:49;;;;;;;6.65;1.50;;;;;;;7.23;100.00;101035.16;5032298;28;20106;-72
2023/12/26 08:07:16;;;;;;;9.38;1.80;;;;;;;7.26;100.00;101040.38;5044541;28;20053;-72
2023/12/26 08:09:43;;;;;;;11.27;1.58;;;;;;;7.30;100.00;101042.03;5044166;28;20045;-71
2023/12/26 08:12:10;;;;;;;8.93;1.50;;;;;;;7.35;100.00;101040.25;5041079;28;21022;-72
2023/12/26 08:14:40;;;;;;;9.10;1.52;;;;;;;7.41;100.00;101050.63;5046366;28;20067;-72
2023/12/26 08:17:12;;;;;;;6.85;1.48;;;;;;;7.50;100.00;101061.88;5030975;28;20133;-69
2023/12/26 08:19:42;;;;;;;8.93;2.10;;;;;;;7.72;100.00;101054.59;5046508;28;20049;-69
2023/12/26 08:22:09;;;;;;;8.88;1.73;;;;;;;7.93;100.00;101056.00;5020701;28;20048;-70
2023/12/26 08:24:36;;;;;;;7.22;1.77;;;;;;;8.12;100.00;101048.69;5029557;28;20045;-70
2023/12/26 08:27:03;;;;;;;8.60;1.30;;;;;;;8.29;100.00;101061.53;5044975;28;20139;-70
2023/12/26 08:29:30;;;;;;;9.60;1.60;;;;;;;8.38;100.00;101066.66;5043347;28;20041;-69
2023/12/26 08:31:57;;;;;;;7.00;1.50;;;;;;;8.46;100.00;101084.03;5049965;28;20041;-70
2023/12/26 08:34:25;;;;;;;10.60;1.60;;;;;;;8.51;100.00;101082.19;5050275;28;20501;-70
2023/12/26 08:36:53;;;;;;;8.40;1.77;;;;;;;8.53;100.00;101083.03;5048861;28;20037;-70
2023/12/26 08:39:20;;;;;;;6.00;1.45;;;;;;;8.54;100.00;101090.03;5049010;28;20127;-70
2023/12/26 08:41:47;;;;;;;10.75;1.60;;;;;;;8.60;100.00;101083.81;5049764;28;20041;-70
2023/12/26 08:44:14;;;;;;;10.18;1.83;;;;;;;8.64;100.00;101086.34;5046709;28;20124;-70
2023/12/26 08:46:41;;;;;;;8.32;1.63;;;;;;;8.69;100.00;101095.03;5046140;28;20167;-70
2023/12/26 08:49:09;;;;;;;8.35;1.38;;;;;;;8.73;100.00;101098.47;5048689;28;20033;-70
2023/12/26 08:51:39;;;;;;;8.52;1.40;;;;;;;8.77;100.00;101105.38;5038710;28;20041;-70
2023/12/26 08:54:06;;;;;;;5.97;1.50;;;;;;;8.83;100.00;101107.91;5043980;28;20042;-69
2023/12/26 08:56:39;;;;;;;6.90;1.60;;;;;;;8.91;100.00;101112.16;5027450;28;20572;-70
2023/12/26 08:59:07;;;;;;;6.97;1.50;;;;;;;8.95;100.00;101125.22;5039514;28;20045;-70
2023/12/26 09:01:35;;;;;;;9.77;2.10;;;;;;;9.02;100.00;101134.72;5044998;28;20033;-70
2023/12/26 09:04:04;;;;;;;7.88;1.42;;;;;;;9.10;100.00;101138.97;5049250;28;20037;-70
2023/12/26 09:06:32;;;;;;;10.73;1.98;;;;;;;9.18;100.00;101137.06;5042347;28;20084;-69
2023/12/26 09:08:59;;;;;;;10.23;1.90;;;;;;;9.25;100.00;101143.91;5045825;28;20044;-70
2023/12/26 09:11:28;;;;;;;7.57;1.70;;;;;;;9.32;100.00;101142.03;5046449;28;20044;-69
2023/12/26 09:13:56;;;;;;;12.77;2.13;;;;;;;9.35;100.00;101139.34;5011850;28;20049;-70
2023/12/26 09:16:23;;;;;;;11.90;2.00;;;;;;;9.37;100.00;101147.19;5019454;28;20534;-69
2023/12/26 09:18:50;;;;;;;7.75;1.98;;;;;;;9.36;100.00;101138.44;5038245;28;20067;-70
2023/12/26 09:21:17;;;;;;;10.45;2.00;;;;;;;9.37;100.00;101149.84;5046900;28;20178;-69
2023/12/26 09:23:44;;;;;;;10.23;1.77;;;;;;;9.35;100.00;101151.63;5044093;28;20045;-69
2023/12/26 09:26:12;;;;;;;10.32;1.95;;;;;;;9.32;100.00;101163.94;5037212;28;20042;-69
2023/12/26 09:28:39;;;;;;;8.85;1.83;;;;;;;9.26;100.00;101165.84;5034202;28;20053;-71
2023/12/26 09:31:06;;;;;;;12.27;1.92;;;;;;;9.12;100.00;101176.59;5027412;28;20037;-71
2023/12/26 09:33:34;;;;;;;14.70;3.28;;;;;;;8.95;100.00;101169.06;5047839;28;20612;-74
2023/12/26 09:36:01;;;;;;;11.63;2.45;;;;;;;8.79;100.00;101186.88;5032465;28;20071;-70
2023/12/26 09:38:28;;;;;;;11.95;3.15;;;;;;;8.66;100.00;101186.19;5044585;28;20129;-70
2023/12/26 09:40:55;;;;;;;12.10;3.65;;;;;;;8.55;100.00;101199.53;5046785;28;20095;-70
2023/12/26 09:43:22;;;;;;;8.02;1.90;;;;;;;8.45;100.00;101205.78;5046837;28;20095;-70
2023/12/26 09:45:50;;;;;;;10.32;2.78;;;;;;;8.37;100.00;101209.41;5046917;28;20661;-70
2023/12/26 09:48:17;;;;;;;10.00;2.17;;;;;;;8.28;100.00;101214.78;5033242;28;20041;-70
2023/12/26 09:50:46;;;;;;;12.50;2.22;;;;;;;8.21;100.00;101234.13;5047465;28;20045;-71
2023/12/26 09:53:22;;;;;;;11.77;2.20;;;;;;;8.16;100.00;101242.09;5016570;28;20456;-70
2023/12/26 09:55:50;;;;;;;10.13;1.85;;;;;;;8.12;100.00;101242.16;5043509;28;20057;-70
2023/12/26 09:58:19;;;;;;;9.68;2.13;;;;;;;8.08;100.00;101244.84;5050892;28;20044;-70
2023/12/26 10:00:50;;;;;;;9.98;1.90;;;;;;;8.09;100.00;101249.16;5048343;28;20045;-70
2023/12/26 10:03:18;;;;;;;10.60;2.10;;;;;;;8.14;100.00;101248.25;5061769;28;20408;-70
2023/12/26 10:05:46;;;;;;;10.75;2.15;;;;;;;8.21;100.00;101258.66;5062003;28;20096;-70
2023/12/26 10:08:13;;;;;;;10.88;2.08;;;;;;;8.26;100.00;101269.09;5035600;28;20044;-71
2023/12/26 10:10:40;;;;;;;14.02;2.47;;;;;;;8.34;100.00;101275.13;5022454;28;20139;-70
2023/12/26 10:13:07;;;;;;;11.95;2.10;;;;;;;8.44;100.00;101274.97;5046769;28;20139;-70
2023/12/26 10:15:34;;;;;;;8.75;1.83;;;;;;;8.50;100.00;101280.16;5030745;28;20045;-70
2023/12/26 10:18:02;;;;;;;12.02;2.28;;;;;;;8.52;100.00;101279.28;5046983;28;20041;-69
2023/12/26 10:20:33;;;;;;;9.43;2.47;;;;;;;8.59;100.00;101276.53;5046416;28;20051;-70
2023/12/26 10:23:06;;;;;;;12.50;2.58;;;;;;;8.64;100.00;101285.25;5039979;28;20047;-70
2023/12/26 10:25:33;;;;;;;18.35;6.82;;;;;;;8.69;100.00;101280.78;5068409;28;20044;-70
2023/12/26 10:28:01;;;;;;;11.73;3.08;;;;;;;8.73;100.00;101281.59;5053234;28;20274;-70
2023/12/26 10:30:28;;;;;;;11.63;2.20;;;;;;;8.77;100.00;101286.78;5061071;28;20040;-70
2023/12/26 10:33:02;;;;;;;10.10;2.65;;;;;;;8.81;99.69;101280.59;5052629;28;20054;-70
2023/12/26 10:35:32;;;;;;;10.20;2.03;;;;;;;8.84;100.00;101279.66;5045738;28;20495;-70
2023/12/26 10:38:00;;;;;;;19.42;6.63;;;;;;;8.89;100.00;101276.97;5057738;28;20045;-70
2023/12/26 10:40:28;;;;;;;17.83;5.90;;;;;;;8.93;100.00;101276.88;5047599;28;20036;-70
2023/12/26 10:42:57;;;;;;;16.52;5.47;;;;;;;8.98;100.00;101284.69;5046546;28;20608;-70
2023/12/26 10:45:26;;;;;;;10.68;2.25;;;;;;;9.02;98.90;101286.38;5046697;28;20064;-70
2023/12/26 10:47:55;;;;;;;14.45;2.30;;;;;;;9.04;99.55;101287.25;5042834;28;20115;-70
2023/12/26 10:50:25;;;;;;;8.07;2.03;;;;;;;9.07;98.73;101296.84;5048569;28;20055;-70
2023/12/26 10:52:54;;;;;;;10.10;2.00;;;;;;;9.11;99.06;101307.28;5031808;28;20037;-70
2023/12/26 10:55:23;;;;;;;10.05;1.80;;;;;;;9.13;98.64;101302.88;5048643;28;20124;-70
2023/12/26 10:57:51;;;;;;;16.58;2.20;;;;;;;9.20;98.76;101305.38;5047689;28;20041;-70
2023/12/26 11:00:18;;;;;;;9.30;1.48;;;;;;;9.24;97.43;101302.66;5058394;28;20044;-70
2023/12/26 11:03:04;;;;;;;11.45;2.17;;;;;;;9.27;98.28;101301.72;5060395;28;20044;-70
2023/12/26 11:05:31;;;;;;;9.13;2.50;;;;;;;9.35;98.74;101312.13;5042126;28;20047;-70
2023/12/26 11:08:00;;;;;;;14.10;3.00;;;;;;;9.40;98.21;101305.03;5036169;28;20044;-70
2023/12/26 11:10:27;;;;;;;8.88;1.67;;;;;;;9.48;97.92;101305.75;5035340;28;20041;-70
2023/12/26 11:12:54;;;;;;;12.32;2.15;;;;;;;9.57;98.37;101316.13;5046812;28;20044;-70
2023/12/26 11:15:22;;;;;;;11.20;2.15;;;;;;;9.72;96.01;101316.72;5029967;28;20127;-70
2023/12/26 11:17:49;;;;;;;11.90;2.20;;;;;;;9.74;96.98;101322.81;5027593;28;20143;-70
2023/12/26 11:20:17;;;;;;;10.07;1.67;;;;;;;9.77;97.34;101314.88;5030196;28;20041;-70
2023/12/26 11:22:44;;;;;;;14.23;1.98;;;;;;;9.76;96.87;101321.91;5029078;28;20672;-70
2023/12/26 11:25:11;;;;;;;11.38;1.90;;;;;;;9.74;96.02;101344.78;5044096;28;20432;-70
2023/12/26 11:27:38;;;;;;;11.35;1.90;;;;;;;9.80;95.35;101335.88;5037595;28;20111;-70